Time;durP1;ratioP1;P1;durP2;ratioP2;P2;SDS_P1;SDS_P2;PMS_P1;PMS_P2;Temp;Humidity;BMP_temperature;BMP_pressure;BME280_temperature;BME280_humidity;BME280_pressure;Samples;Min_cycle;Max_cycle;Signal;HPM_P1;HPM_P2
2024/03/13 00:00:37;;;;;;;28.58;8.05;;;;;;;;;;5071109;28;20322;-75
2024/03/13 00:03:03;;;;;;;27.15;7.55;;;;;;;;;;5070902;28;20044;-76
2024/03/13 00:05:30;;;;;;;25.17;6.82;;;;;;;;;;5070946;28;20048;-75
2024/03/13 00:07:57;;;;;;;32.67;7.15;;;;;;;;;;5071301;28;20040;-75
2024/03/13 00:10:24;;;;;;;21.95;5.75;;;;;;;;;;5070520;28;20044;-75
2024/03/13 00:12:51;;;;;;;21.52;5.80;;;;;;;;;;5071026;28;20501;-75
2024/03/13 00:15:18;;;;;;;30.80;5.53;;;;;;;;;;5070594;28;20047;-75
2024/03/13 00:17:44;;;;;;;30.60;5.28;;;;;;;;;;5070797;28;20102;-75
2024/03/13 00:20:12;;;;;;;27.00;5.90;;;;;;;;;;5070848;28;20036;-76
2024/03/13 00:22:40;;;;;;;21.83;4.90;;;;;;;;;;5070945;28;20037;-76
2024/03/13 00:25:11;;;;;;;21.02;5.95;;;;;;;;;;5070667;28;20054;-76
2024/03/13 00:27:41;;;;;;;23.92;6.88;;;;;;;;;;5070762;28;20094;-75
2024/03/13 00:30:09;;;;;;;24.10;6.07;;;;;;;;;;5070745;28;20367;-75
2024/03/13 00:32:35;;;;;;;27.20;6.00;;;;;;;;;;5070743;28;20101;-76
2024/03/13 00:35:04;;;;;;;22.35;5.43;;;;;;;;;;5071066;28;20172;-76
2024/03/13 00:37:31;;;;;;;15.77;4.88;;;;;;;;;;5070553;28;20060;-76
2024/03/13 00:39:58;;;;;;;21.52;5.45;;;;;;;;;;5070984;28;20039;-75
2024/03/13 00:42:25;;;;;;;25.73;5.60;;;;;;;;;;5052571;28;20131;-75
2024/03/13 00:44:53;;;;;;;20.73;4.93;;;;;;;;;;5071040;28;20239;-76
2024/03/13 00:47:23;;;;;;;22.60;4.55;;;;;;;;;;5070433;28;20041;-75
2024/03/13 00:49:52;;;;;;;27.52;5.03;;;;;;;;;;5072004;28;20044;-76
2024/03/13 00:52:19;;;;;;;;;;;;;;;;;;5074408;28;20041;-76
2024/03/13 00:54:46;;;;;;;19.52;5.32;;;;;;;;;;5074259;28;19959;-75
2024/03/13 00:57:15;;;;;;;18.17;5.22;;;;;;;;;;5073936;28;20427;-76
2024/03/13 00:59:42;;;;;;;24.85;4.90;;;;;;;;;;5074161;28;20037;-76
2024/03/13 01:02:09;;;;;;;19.10;5.07;;;;;;;;;;5074017;28;20029;-76
2024/03/13 01:04:36;;;;;;;19.30;5.43;;;;;;;;;;5074112;28;20045;-75
2024/03/13 01:07:06;;;;;;;20.30;4.82;;;;;;;;;;5074367;28;20033;-75
2024/03/13 01:09:34;;;;;;;21.45;6.18;;;;;;;;;;5073707;28;20469;-76
2024/03/13 01:12:01;;;;;;;21.13;5.30;;;;;;;;;;5074315;28;20102;-76
2024/03/13 01:14:28;;;;;;;19.40;4.88;;;;;;;;;;5073684;28;20544;-76
2024/03/13 01:16:58;;;;;;;25.95;5.40;;;;;;;;;;5073873;28;20033;-75
2024/03/13 01:19:30;;;;;;;24.35;6.07;;;;;;;;;;5073166;28;20056;-75
2024/03/13 01:22:04;;;;;;;25.23;7.07;;;;;;;;;;5074217;28;20036;-75
2024/03/13 01:24:32;;;;;;;23.13;6.13;;;;;;;;;;5073451;28;20051;-76
2024/03/13 01:27:00;;;;;;;19.90;5.93;;;;;;;;;;5073807;28;20360;-76
2024/03/13 01:29:27;;;;;;;26.63;6.10;;;;;;;;;;5073265;28;20040;-76
2024/03/13 01:31:57;;;;;;;22.10;6.75;;;;;;;;;;5073874;28;20033;-75
2024/03/13 01:34:24;;;;;;;27.30;6.97;;;;;;;;;;5072936;28;20040;-76
2024/03/13 01:39:37;;;;;;;36.00;8.10;;;;;;;;;;5057016;28;20383;-76
2024/03/13 01:56:21;;;;;;;30.13;8.20;;;;;;;;;;5073938;28;20036;-76
2024/03/13 01:59:02;;;;;;;23.70;6.93;;;;;;;;;;5074351;28;20045;-76
2024/03/13 02:04:15;;;;;;;23.17;7.72;;;;;;;;;;5072783;28;20093;-76
2024/03/13 02:06:43;;;;;;;30.10;8.05;;;;;;;;;;5073131;28;20116;-76
2024/03/13 02:09:09;;;;;;;24.70;8.70;;;;;;;;;;5072985;28;20037;-76
2024/03/13 02:11:36;;;;;;;23.52;8.82;;;;;;;;;;5059458;28;20037;-76
2024/03/13 02:14:04;;;;;;;30.38;7.35;;;;;;;;;;5053989;28;20053;-75
2024/03/13 02:16:31;;;;;;;21.90;7.50;;;;;;;;;;5052194;28;20343;-76
2024/03/13 02:18:59;;;;;;;30.23;7.28;;;;;;;;;;5052755;28;20817;-76
2024/03/13 02:21:26;;;;;;;31.25;7.53;;;;;;;;;;5052255;28;20379;-76
2024/03/13 02:23:56;;;;;;;28.50;8.32;;;;;;;;;;5052874;28;20037;-75
2024/03/13 02:26:24;;;;;;;29.70;8.93;;;;;;;;;;5066639;28;20056;-76
2024/03/13 02:28:52;;;;;;;32.72;8.30;;;;;;;;;;5055050;28;20386;-76
2024/03/13 02:31:19;;;;;;;27.88;7.40;;;;;;;;;;5072095;28;20047;-76
2024/03/13 02:33:46;;;;;;;23.05;6.40;;;;;;;;;;5072471;28;20082;-75
2024/03/13 02:36:14;;;;;;;24.77;6.95;;;;;;;;;;5052157;28;20045;-76
2024/03/13 02:38:40;;;;;;;22.77;5.95;;;;;;;;;;5052502;28;20052;-75
2024/03/13 02:41:07;;;;;;;28.20;7.03;;;;;;;;;;5048717;28;20051;-76
2024/03/13 02:43:36;;;;;;;24.35;5.88;;;;;;;;;;5072339;28;20050;-76
2024/03/13 02:46:03;;;;;;;24.00;6.50;;;;;;;;;;5072560;28;20056;-76
2024/03/13 02:48:30;;;;;;;22.88;6.43;;;;;;;;;;5071670;28;20044;-76
2024/03/13 02:50:57;;;;;;;21.80;5.63;;;;;;;;;;5054607;28;20355;-76
2024/03/13 02:53:24;;;;;;;21.15;6.28;;;;;;;;;;5071587;28;20492;-76
2024/03/13 02:55:53;;;;;;;14.82;5.28;;;;;;;;;;5072030;28;20662;-75
2024/03/13 02:58:21;;;;;;;18.73;4.93;;;;;;;;;;5071625;28;20378;-75
2024/03/13 03:00:48;;;;;;;21.00;4.95;;;;;;;;;;5071909;28;20048;-76
2024/03/13 03:03:16;;;;;;;20.77;4.97;;;;;;;;;;5071796;28;20120;-76
2024/03/13 03:05:45;;;;;;;18.92;5.03;;;;;;;;;;5071929;28;20051;-76
2024/03/13 03:08:12;;;;;;;16.40;4.35;;;;;;;;;;5071625;28;20044;-75
2024/03/13 03:10:39;;;;;;;17.85;5.07;;;;;;;;;;5071758;28;20052;-76
2024/03/13 03:13:08;;;;;;;23.05;6.15;;;;;;;;;;5070729;28;20070;-76
2024/03/13 03:15:36;;;;;;;19.02;7.30;;;;;;;;;;5071753;28;20045;-76
2024/03/13 03:18:03;;;;;;;23.08;7.47;;;;;;;;;;5071604;28;20610;-75
2024/03/13 03:20:31;;;;;;;18.03;6.57;;;;;;;;;;5071343;28;20041;-76
2024/03/13 03:22:58;;;;;;;20.67;7.85;;;;;;;;;;5071755;28;20051;-75
2024/03/13 03:25:28;;;;;;;24.77;6.53;;;;;;;;;;5070956;28;20048;-75
2024/03/13 03:27:57;;;;;;;25.58;6.93;;;;;;;;;;5071698;28;20293;-76
2024/03/13 03:30:25;;;;;;;26.08;8.52;;;;;;;;;;5070997;28;20405;-76
2024/03/13 03:32:53;;;;;;;;;;;;;;;;;;5071965;28;20442;-76
2024/03/13 03:35:20;;;;;;;23.93;8.43;;;;;;;;;;5070889;28;19935;-76
2024/03/13 03:37:47;;;;;;;28.42;8.38;;;;;;;;;;5071313;28;20054;-75
2024/03/13 03:40:14;;;;;;;24.98;8.88;;;;;;;;;;5071081;28;20040;-75
2024/03/13 03:42:41;;;;;;;20.58;8.75;;;;;;;;;;5071320;28;20053;-76
2024/03/13 03:45:08;;;;;;;27.35;9.82;;;;;;;;;;5071126;28;20067;-75
2024/03/13 03:47:35;;;;;;;25.25;8.82;;;;;;;;;;5053346;28;20055;-76
2024/03/13 03:50:02;;;;;;;24.10;9.18;;;;;;;;;;5071732;28;20043;-76
2024/03/13 03:52:29;;;;;;;26.20;9.50;;;;;;;;;;5070629;28;20047;-75
2024/03/13 03:54:55;;;;;;;27.73;8.68;;;;;;;;;;5071383;28;20132;-76
2024/03/13 03:57:22;;;;;;;24.33;9.82;;;;;;;;;;5053108;28;20044;-75
2024/03/13 03:59:49;;;;;;;32.10;9.02;;;;;;;;;;5071185;28;20360;-75
2024/03/13 04:02:16;;;;;;;26.42;9.15;;;;;;;;;;5070901;28;20043;-75
2024/03/13 04:04:43;;;;;;;21.60;8.95;;;;;;;;;;5071000;28;20040;-76
2024/03/13 04:07:13;;;;;;;26.85;7.55;;;;;;;;;;5070880;28;20056;-76
2024/03/13 04:09:40;;;;;;;22.55;8.10;;;;;;;;;;5071046;28;20467;-75
2024/03/13 04:12:06;;;;;;;28.02;8.27;;;;;;;;;;5070971;28;20451;-76
2024/03/13 04:14:35;;;;;;;28.00;8.07;;;;;;;;;;5071050;28;20049;-75
2024/03/13 04:17:02;;;;;;;24.70;8.10;;;;;;;;;;5071280;28;20048;-75
2024/03/13 04:19:29;;;;;;;21.05;8.10;;;;;;;;;;5070696;28;20047;-76
2024/03/13 04:21:58;;;;;;;24.45;7.93;;;;;;;;;;5071067;28;20040;-75
2024/03/13 04:24:26;;;;;;;23.02;7.65;;;;;;;;;;5053183;28;20370;-75
2024/03/13 04:26:52;;;;;;;30.15;8.70;;;;;;;;;;5075013;28;20044;-76
2024/03/13 04:29:20;;;;;;;22.17;7.47;;;;;;;;;;5074583;28;20037;-76
2024/03/13 04:31:57;;;;;;;34.88;7.38;;;;;;;;;;5075202;28;20114;-75
2024/03/13 04:34:24;;;;;;;28.23;7.75;;;;;;;;;;5074429;28;20054;-76
2024/03/13 04:36:51;;;;;;;25.65;7.47;;;;;;;;;;5074732;28;20086;-76
2024/03/13 04:39:18;;;;;;;28.17;7.90;;;;;;;;;;5074318;28;20110;-76
2024/03/13 04:41:45;;;;;;;28.60;8.30;;;;;;;;;;5074597;28;20040;-76
2024/03/13 04:44:12;;;;;;;28.48;8.80;;;;;;;;;;5074473;28;20043;-76
2024/03/13 04:46:39;;;;;;;24.83;8.23;;;;;;;;;;5067963;28;20037;-76
2024/03/13 04:49:10;;;;;;;19.98;7.93;;;;;;;;;;5054374;28;20039;-75
2024/03/13 04:51:37;;;;;;;27.80;8.30;;;;;;;;;;5054489;28;20033;-76
2024/03/13 04:54:06;;;;;;;24.70;8.40;;;;;;;;;;5054610;28;20033;-75
2024/03/13 04:56:34;;;;;;;27.70;8.40;;;;;;;;;;5054524;28;20041;-76
2024/03/13 04:59:00;;;;;;;24.77;7.63;;;;;;;;;;5054871;28;20045;-75
2024/03/13 05:01:27;;;;;;;23.40;8.23;;;;;;;;;;5053902;28;20045;-75
2024/03/13 05:03:54;;;;;;;26.42;8.60;;;;;;;;;;5054582;28;20471;-75
2024/03/13 05:06:21;;;;;;;24.75;7.72;;;;;;;;;;5053793;28;20037;-76
2024/03/13 05:08:48;;;;;;;22.08;7.97;;;;;;;;;;5054408;28;20360;-76
2024/03/13 05:11:17;;;;;;;32.13;8.43;;;;;;;;;;5054356;28;20491;-76
2024/03/13 05:13:45;;;;;;;33.00;8.50;;;;;;;;;;5054198;28;20116;-76
2024/03/13 05:16:13;;;;;;;28.35;8.50;;;;;;;;;;5053987;28;20041;-76
2024/03/13 05:18:39;;;;;;;22.23;8.55;;;;;;;;;;5053971;28;20041;-75
2024/03/13 05:21:06;;;;;;;26.88;10.02;;;;;;;;;;5053724;28;20392;-75
2024/03/13 05:23:33;;;;;;;29.42;9.40;;;;;;;;;;5053852;28;20055;-76
2024/03/13 05:26:00;;;;;;;21.52;9.15;;;;;;;;;;5065677;28;20055;-75
2024/03/13 05:28:28;;;;;;;29.77;9.32;;;;;;;;;;5073469;28;20041;-76
2024/03/13 05:30:55;;;;;;;;;;;;;;;;;;5056906;28;20044;-76
2024/03/13 05:33:22;;;;;;;33.42;9.05;;;;;;;;;;5073478;28;20015;-75
2024/03/13 05:35:48;;;;;;;27.00;9.73;;;;;;;;;;5073145;28;20037;-75
2024/03/13 05:38:16;;;;;;;24.65;7.72;;;;;;;;;;5073032;28;20676;-75
2024/03/13 05:40:43;;;;;;;23.23;9.37;;;;;;;;;;5073732;28;20051;-76
2024/03/13 05:43:11;;;;;;;26.15;8.82;;;;;;;;;;5073476;28;20278;-76
2024/03/13 05:45:37;;;;;;;26.02;9.23;;;;;;;;;;5073778;28;20047;-76
2024/03/13 05:48:04;;;;;;;28.95;8.80;;;;;;;;;;5073474;28;20048;-76
2024/03/13 05:50:31;;;;;;;21.48;8.30;;;;;;;;;;5073307;28;20051;-76
2024/03/13 05:52:58;;;;;;;17.70;7.70;;;;;;;;;;5073535;28;20037;-75
2024/03/13 05:55:24;;;;;;;28.23;8.23;;;;;;;;;;5073011;28;20048;-77
2024/03/13 05:57:51;;;;;;;20.27;7.75;;;;;;;;;;5072999;28;20071;-75
2024/03/13 06:00:19;;;;;;;26.42;7.88;;;;;;;;;;5072782;28;20123;-75
2024/03/13 06:02:47;;;;;;;20.33;6.32;;;;;;;;;;5063521;28;20049;-80
2024/03/13 06:05:17;;;;;;;20.40;7.00;;;;;;;;;;5020051;28;20094;-79
2024/03/13 06:07:44;;;;;;;20.02;6.35;;;;;;;;;;5054511;28;20041;-76
2024/03/13 06:10:10;;;;;;;16.23;5.50;;;;;;;;;;5053856;28;20041;-76
2024/03/13 06:12:38;;;;;;;21.80;5.03;;;;;;;;;;5053971;28;20045;-76
2024/03/13 06:15:12;;;;;;;12.88;5.40;;;;;;;;;;5071708;28;20036;-76
2024/03/13 06:17:42;;;;;;;20.30;6.43;;;;;;;;;;5072916;28;20459;-75
2024/03/13 06:20:13;;;;;;;23.95;6.68;;;;;;;;;;5072538;28;20041;-76
2024/03/13 06:22:41;;;;;;;18.33;6.75;;;;;;;;;;5073345;28;20045;-76
2024/03/13 06:25:08;;;;;;;16.90;6.22;;;;;;;;;;5072499;28;20040;-75
2024/03/13 06:27:36;;;;;;;21.52;6.38;;;;;;;;;;5054457;28;20120;-75
2024/03/13 06:30:03;;;;;;;23.10;6.47;;;;;;;;;;5052841;28;20481;-76
2024/03/13 06:32:30;;;;;;;18.40;5.78;;;;;;;;;;5052224;28;20494;-76
2024/03/13 06:34:57;;;;;;;19.88;5.55;;;;;;;;;;5061877;28;20523;-76
2024/03/13 06:37:24;;;;;;;27.13;6.18;;;;;;;;;;5078490;28;20048;-76
2024/03/13 06:39:53;;;;;;;15.63;5.82;;;;;;;;;;5088495;28;20044;-75
2024/03/13 06:42:20;;;;;;;20.75;5.13;;;;;;;;;;5072017;28;20090;-75
2024/03/13 06:44:49;;;;;;;17.38;6.20;;;;;;;;;;5072143;28;20102;-75
2024/03/13 06:47:20;;;;;;;17.80;6.35;;;;;;;;;;5054973;28;20367;-76
2024/03/13 06:49:47;;;;;;;20.98;6.38;;;;;;;;;;5072414;28;20067;-75
2024/03/13 06:52:14;;;;;;;22.20;6.30;;;;;;;;;;5071644;28;20510;-76
2024/03/13 06:54:42;;;;;;;19.90;6.35;;;;;;;;;;5055027;28;20048;-75
2024/03/13 06:57:12;;;;;;;20.02;6.90;;;;;;;;;;5072009;28;20040;-75
2024/03/13 06:59:41;;;;;;;14.07;5.65;;;;;;;;;;5054206;28;20044;-75
2024/03/13 07:02:13;;;;;;;16.02;5.53;;;;;;;;;;5071885;28;20493;-75
2024/03/13 07:04:40;;;;;;;17.90;5.07;;;;;;;;;;5072013;28;20117;-75
2024/03/13 07:07:07;;;;;;;21.13;4.97;;;;;;;;;;5071690;28;20040;-76
2024/03/13 07:09:36;;;;;;;15.07;4.85;;;;;;;;;;5071973;28;20044;-75
2024/03/13 07:12:04;;;;;;;14.13;4.18;;;;;;;;;;5072048;28;20463;-75
2024/03/13 07:14:31;;;;;;;14.45;4.22;;;;;;;;;;5068920;28;20090;-75
2024/03/13 07:16:58;;;;;;;20.83;4.50;;;;;;;;;;5053210;28;20037;-76
2024/03/13 07:19:24;;;;;;;22.10;4.53;;;;;;;;;;5057431;28;20037;-76
2024/03/13 07:21:52;;;;;;;19.67;4.43;;;;;;;;;;5069356;28;20052;-76
2024/03/13 07:24:19;;;;;;;14.43;4.28;;;;;;;;;;5071248;28;20094;-76
2024/03/13 07:26:46;;;;;;;16.02;4.70;;;;;;;;;;5054075;28;20041;-75
2024/03/13 07:29:13;;;;;;;15.90;4.65;;;;;;;;;;5071131;28;20483;-76
2024/03/13 07:31:39;;;;;;;30.35;4.55;;;;;;;;;;5071567;28;20037;-76
2024/03/13 07:34:09;;;;;;;16.90;4.28;;;;;;;;;;5071063;28;20040;-75
2024/03/13 07:36:38;;;;;;;16.95;4.15;;;;;;;;;;5058783;28;20459;-75
2024/03/13 07:39:10;;;;;;;16.83;4.18;;;;;;;;;;5070929;28;20079;-76
2024/03/13 07:41:39;;;;;;;22.30;4.18;;;;;;;;;;5071241;28;20542;-76
2024/03/13 07:44:07;;;;;;;23.27;5.13;;;;;;;;;;5070906;28;20131;-76
2024/03/13 07:46:34;;;;;;;16.30;4.72;;;;;;;;;;5071411;28;20052;-76
2024/03/13 07:49:02;;;;;;;15.20;4.57;;;;;;;;;;5071329;28;20044;-76
2024/03/13 07:51:29;;;;;;;21.27;5.13;;;;;;;;;;5070737;28;20090;-75
2024/03/13 07:53:56;;;;;;;11.18;4.25;;;;;;;;;;5053441;28;20071;-75
2024/03/13 07:56:23;;;;;;;24.33;5.47;;;;;;;;;;5070758;28;20063;-76
2024/03/13 07:58:51;;;;;;;20.50;4.60;;;;;;;;;;5070845;28;20475;-75
2024/03/13 08:01:18;;;;;;;15.23;4.97;;;;;;;;;;5070557;28;20044;-75
2024/03/13 08:03:45;;;;;;;19.02;4.38;;;;;;;;;;5071219;28;20064;-76
2024/03/13 08:06:11;;;;;;;17.30;4.20;;;;;;;;;;5070562;28;20043;-75
2024/03/13 08:08:56;;;;;;;18.58;3.22;;;;;;;;;;5060561;28;20382;-76
2024/03/13 08:11:40;;;;;;;13.98;3.42;;;;;;;;;;5070714;28;20079;-76
2024/03/13 08:14:24;;;;;;;12.27;3.53;;;;;;;;;;5055547;28;20048;-76
2024/03/13 08:17:08;;;;;;;16.60;4.28;;;;;;;;;;5070491;28;20043;-75
2024/03/13 08:19:53;;;;;;;18.38;4.32;;;;;;;;;;5070817;28;20102;-75
2024/03/13 08:22:37;;;;;;;19.02;4.50;;;;;;;;;;5070974;28;20048;-75
2024/03/13 08:25:21;;;;;;;18.15;3.70;;;;;;;;;;5070696;28;20486;-76
2024/03/13 08:28:07;;;;;;;22.88;4.18;;;;;;;;;;5057361;28;20047;-76
2024/03/13 08:30:51;;;;;;;14.52;2.80;;;;;;;;;;5055731;28;20074;-76
2024/03/13 08:33:35;;;;;;;24.23;3.65;;;;;;;;;;5070746;28;20118;-75
2024/03/13 08:36:19;;;;;;;14.77;3.60;;;;;;;;;;5070656;28;20379;-76
2024/03/13 08:39:03;;;;;;;12.35;3.97;;;;;;;;;;5059718;28;20486;-76
2024/03/13 08:41:47;;;;;;;14.63;2.65;;;;;;;;;;5054815;28;20398;-75
2024/03/13 08:44:31;;;;;;;16.70;3.25;;;;;;;;;;5070707;28;20080;-76
2024/03/13 08:47:18;;;;;;;10.95;2.25;;;;;;;;;;5071602;28;20048;-76
2024/03/13 08:50:03;;;;;;;15.05;2.92;;;;;;;;;;5056659;28;20086;-76
2024/03/13 08:52:48;;;;;;;16.75;2.83;;;;;;;;;;5062850;28;20047;-76
2024/03/13 08:55:34;;;;;;;16.05;2.85;;;;;;;;;;5051865;28;20478;-76
2024/03/13 08:58:20;;;;;;;15.35;2.58;;;;;;;;;;5052020;28;20044;-75
2024/03/13 09:01:04;;;;;;;15.20;2.72;;;;;;;;;;5051976;28;20102;-76
2024/03/13 09:03:48;;;;;;;17.75;2.67;;;;;;;;;;5052262;28;20593;-76
2024/03/13 09:06:33;;;;;;;12.05;2.95;;;;;;;;;;5052011;28;20379;-77
2024/03/13 09:09:01;;;;;;;14.25;3.15;;;;;;;;;;5052264;28;20048;-76
2024/03/13 09:11:28;;;;;;;11.50;2.22;;;;;;;;;;5052285;28;20045;-76
2024/03/13 09:14:01;;;;;;;12.35;2.63;;;;;;;;;;5055903;28;20345;-76
2024/03/13 09:16:28;;;;;;;12.50;2.17;;;;;;;;;;5069505;28;20044;-75
2024/03/13 09:18:55;;;;;;;19.33;2.60;;;;;;;;;;5074932;28;20040;-76
2024/03/13 09:21:22;;;;;;;15.52;2.75;;;;;;;;;;5075151;28;20044;-76
2024/03/13 09:23:52;;;;;;;14.23;3.05;;;;;;;;;;5075443;28;20051;-76
2024/03/13 09:26:19;;;;;;;11.00;2.38;;;;;;;;;;5074928;28;20048;-76
2024/03/13 09:28:46;;;;;;;14.20;2.85;;;;;;;;;;5075572;28;20395;-76
2024/03/13 09:31:13;;;;;;;12.35;2.35;;;;;;;;;;5075147;28;20094;-76
2024/03/13 09:33:40;;;;;;;15.07;1.83;;;;;;;;;;5075366;28;20041;-76
2024/03/13 09:36:12;;;;;;;13.85;2.05;;;;;;;;;;5074897;28;20051;-76
2024/03/13 09:38:42;;;;;;;10.00;2.05;;;;;;;;;;5075262;28;20498;-76
2024/03/13 09:41:16;;;;;;;12.48;1.90;;;;;;;;;;5075075;28;20032;-77
2024/03/13 09:43:44;;;;;;;9.88;1.92;;;;;;;;;;5065362;28;20128;-76
2024/03/13 09:46:14;;;;;;;13.40;2.00;;;;;;;;;;5073956;28;20471;-79
2024/03/13 09:48:42;;;;;;;12.77;2.00;;;;;;;;;;5065082;28;20037;-79
2024/03/13 09:51:10;;;;;;;10.73;1.70;;;;;;;;;;5073805;28;20425;-79
2024/03/13 09:53:41;;;;;;;6.03;1.52;;;;;;;;;;5065082;28;20051;-77
2024/03/13 09:56:13;;;;;;;12.30;1.75;;;;;;;;;;5073696;28;20094;-76
2024/03/13 09:58:45;;;;;;;15.32;1.98;;;;;;;;;;5064799;28;20040;-76
2024/03/13 10:01:35;;;;;;;10.60;1.60;;;;;;;;;;5071327;28;20090;-76
2024/03/13 10:04:15;;;;;;;6.63;1.58;;;;;;;;;;5073045;28;20060;-76
2024/03/13 10:06:43;;;;;;;8.80;1.27;;;;;;;;;;5072569;28;20032;-78
2024/03/13 10:09:14;;;;;;;8.55;1.52;;;;;;;;;;5073757;28;20036;-79
2024/03/13 10:11:46;;;;;;;9.90;1.55;;;;;;;;;;5073972;28;20094;-78
2024/03/13 10:14:14;;;;;;;9.95;1.63;;;;;;;;;;5070812;28;20071;-75
2024/03/13 10:16:43;;;;;;;8.70;1.23;;;;;;;;;;5074108;28;20044;-77
2024/03/13 10:19:12;;;;;;;8.48;1.65;;;;;;;;;;5073428;28;20123;-77
2024/03/13 10:21:41;;;;;;;9.23;1.75;;;;;;;;;;5073942;28;20542;-77
2024/03/13 10:24:10;;;;;;;9.98;1.27;;;;;;;;;;5073123;28;20041;-77
2024/03/13 10:26:39;;;;;;;14.98;1.98;;;;;;;;;;5073779;28;20048;-78
2024/03/13 10:29:08;;;;;;;7.50;1.27;;;;;;;;;;5073317;28;20526;-76
2024/03/13 10:31:36;;;;;;;10.45;1.58;;;;;;;;;;5071384;28;20037;-75
2024/03/13 10:34:03;;;;;;;13.10;1.70;;;;;;;;;;5073403;28;20123;-76
2024/03/13 10:36:31;;;;;;;10.80;1.92;;;;;;;;;;5072885;28;20044;-75
2024/03/13 10:39:02;;;;;;;6.30;1.40;;;;;;;;;;5071218;28;20037;-75
2024/03/13 10:41:32;;;;;;;17.10;1.98;;;;;;;;;;5073159;28;20044;-75
2024/03/13 10:44:00;;;;;;;13.30;2.45;;;;;;;;;;5073474;28;20398;-75
2024/03/13 10:46:26;;;;;;;11.65;2.15;;;;;;;;;;5073016;28;20140;-75
2024/03/13 10:48:54;;;;;;;15.27;2.83;;;;;;;;;;5073339;28;20033;-75
2024/03/13 10:51:23;;;;;;;12.20;1.95;;;;;;;;;;5063510;28;20037;-75
2024/03/13 10:53:50;;;;;;;13.13;2.38;;;;;;;;;;5073787;28;20055;-75
2024/03/13 10:56:18;;;;;;;10.25;1.80;;;;;;;;;;5073174;28;20475;-75
2024/03/13 10:58:47;;;;;;;11.80;2.25;;;;;;;;;;5072520;28;20047;-75
2024/03/13 11:01:17;;;;;;;9.05;1.77;;;;;;;;;;5072948;28;20044;-75
2024/03/13 11:03:48;;;;;;;15.98;2.60;;;;;;;;;;5062472;28;20041;-75
2024/03/13 11:06:16;;;;;;;13.90;2.60;;;;;;;;;;5064660;28;20040;-75
2024/03/13 11:08:43;;;;;;;13.85;2.05;;;;;;;;;;5052977;28;20040;-75
2024/03/13 11:11:13;;;;;;;20.30;2.72;;;;;;;;;;5073103;28;20121;-75
2024/03/13 11:13:54;;;;;;;12.35;2.13;;;;;;;;;;5068341;28;20059;-75
2024/03/13 11:16:23;;;;;;;10.88;2.30;;;;;;;;;;5060369;28;20040;-76
2024/03/13 11:18:50;;;;;;;10.98;2.17;;;;;;;;;;5063704;28;20048;-75
2024/03/13 11:21:44;;;;;;;18.53;3.03;;;;;;;;;;5059826;28;20037;-76
2024/03/13 11:24:23;;;;;;;16.27;2.20;;;;;;;;;;5051491;28;20479;-75
2024/03/13 11:26:52;;;;;;;9.25;1.98;;;;;;;;;;5060216;28;20037;-75
2024/03/13 11:29:27;;;;;;;9.02;1.80;;;;;;;;;;5061622;28;20423;-75
2024/03/13 11:31:55;;;;;;;15.13;2.95;;;;;;;;;;5061956;28;20041;-75
2024/03/13 11:34:24;;;;;;;11.90;1.88;;;;;;;;;;5060294;28;20095;-75
2024/03/13 11:36:51;;;;;;;10.57;2.47;;;;;;;;;;5061817;28;20040;-76
2024/03/13 11:39:18;;;;;;;14.45;2.63;;;;;;;;;;5072445;28;20044;-75
2024/03/13 11:41:45;;;;;;;13.80;2.88;;;;;;;;;;5092416;28;20046;-75
2024/03/13 11:44:18;;;;;;;13.88;3.28;;;;;;;;;;5092412;28;20042;-75
2024/03/13 11:46:49;;;;;;;13.75;2.83;;;;;;;;;;5093178;28;20047;-75
2024/03/13 11:49:17;;;;;;;16.33;2.42;;;;;;;;;;5090011;28;20421;-75
2024/03/13 11:52:02;;;;;;;10.25;2.00;;;;;;;;;;5073092;28;20063;-75
2024/03/13 11:54:30;;;;;;;12.75;1.80;;;;;;;;;;5072649;28;20466;-75
2024/03/13 11:57:12;;;;;;;16.50;1.90;;;;;;;;;;5071817;28;20045;-75
2024/03/13 11:59:50;;;;;;;16.75;2.83;;;;;;;;;;5070819;28;20490;-76
2024/03/13 12:02:40;;;;;;;11.80;2.38;;;;;;;;;;5070408;28;20044;-75
2024/03/13 12:05:07;;;;;;;14.35;2.22;;;;;;;;;;5052596;28;20040;-75
2024/03/13 12:07:40;;;;;;;17.83;3.13;;;;;;;;;;5070806;28;20053;-76
2024/03/13 12:10:16;;;;;;;9.63;1.92;;;;;;;;;;5052686;28;20475;-76
2024/03/13 12:12:44;;;;;;;14.65;2.00;;;;;;;;;;5072618;28;20426;-75
2024/03/13 12:15:21;;;;;;;13.90;1.90;;;;;;;;;;5071998;28;20036;-75
2024/03/13 12:17:51;;;;;;;16.83;2.50;;;;;;;;;;5069390;28;20483;-75
2024/03/13 12:20:21;;;;;;;12.55;2.30;;;;;;;;;;5060513;28;20419;-75
2024/03/13 12:22:50;;;;;;;14.63;2.75;;;;;;;;;;5061645;28;20131;-74
2024/03/13 12:25:20;;;;;;;12.38;2.28;;;;;;;;;;5064087;28;20040;-75
2024/03/13 12:27:51;;;;;;;16.23;4.05;;;;;;;;;;5062083;28;20044;-75
2024/03/13 12:30:19;;;;;;;13.38;2.58;;;;;;;;;;5060379;28;20048;-75
2024/03/13 12:32:55;;;;;;;15.32;3.50;;;;;;;;;;5061640;28;20045;-75
2024/03/13 12:35:22;;;;;;;16.42;3.63;;;;;;;;;;5060215;28;20053;-76
2024/03/13 12:37:49;;;;;;;14.95;2.80;;;;;;;;;;5054994;28;20541;-76
2024/03/13 12:40:16;;;;;;;11.00;2.28;;;;;;;;;;5066315;28;20043;-75
2024/03/13 12:42:47;;;;;;;21.80;4.88;;;;;;;;;;5092417;28;20123;-77
2024/03/13 12:45:15;;;;;;;17.77;4.13;;;;;;;;;;5092639;28;20036;-75
2024/03/13 12:47:42;;;;;;;12.45;1.73;;;;;;;;;;5096428;28;20044;-74
2024/03/13 12:50:15;;;;;;;18.35;3.55;;;;;;;;;;5096040;28;20047;-75
2024/03/13 12:52:45;;;;;;;15.90;3.22;;;;;;;;;;5096579;28;20040;-75
2024/03/13 12:55:16;;;;;;;13.80;3.10;;;;;;;;;;5095858;28;20091;-75
2024/03/13 12:57:43;;;;;;;16.65;3.17;;;;;;;;;;5096491;28;20086;-75
2024/03/13 13:00:16;;;;;;;14.55;2.90;;;;;;;;;;5095530;28;20051;-76
2024/03/13 13:02:45;;;;;;;17.35;2.88;;;;;;;;;;5096320;28;20047;-75
2024/03/13 13:05:13;;;;;;;16.15;2.80;;;;;;;;;;5094842;28;20467;-75
2024/03/13 13:07:50;;;;;;;18.73;2.70;;;;;;;;;;5096288;28;20421;-76
2024/03/13 13:10:21;;;;;;;17.50;2.13;;;;;;;;;;5095399;28;20036;-75
2024/03/13 13:12:49;;;;;;;15.73;3.03;;;;;;;;;;5077276;28;20044;-74
2024/03/13 13:15:19;;;;;;;12.80;2.30;;;;;;;;;;5068847;28;20467;-75
2024/03/13 13:17:47;;;;;;;14.85;2.15;;;;;;;;;;5067840;28;20037;-75
2024/03/13 13:20:15;;;;;;;15.93;2.37;;;;;;;;;;5063704;28;20068;-75
2024/03/13 13:22:44;;;;;;;14.13;2.78;;;;;;;;;;5065005;28;20041;-75
2024/03/13 13:25:16;;;;;;;18.67;2.77;;;;;;;;;;5058173;28;20115;-75
2024/03/13 13:27:45;;;;;;;14.50;2.65;;;;;;;;;;5065651;28;20326;-74
2024/03/13 13:30:13;;;;;;;15.63;2.20;;;;;;;;;;5066647;28;20127;-74
2024/03/13 13:32:51;;;;;;;11.90;2.15;;;;;;;;;;5065126;28;20037;-74
2024/03/13 13:35:18;;;;;;;15.60;2.70;;;;;;;;;;5064238;28;20539;-75
2024/03/13 13:37:44;;;;;;;14.90;2.75;;;;;;;;;;5062421;28;20044;-75
2024/03/13 13:40:15;;;;;;;17.98;2.53;;;;;;;;;;5061328;28;20029;-74
2024/03/13 13:42:45;;;;;;;19.00;2.50;;;;;;;;;;5061626;28;20055;-75
2024/03/13 13:45:16;;;;;;;18.40;2.53;;;;;;;;;;5061241;28;20048;-75
2024/03/13 13:47:43;;;;;;;14.55;2.40;;;;;;;;;;5061708;28;20036;-75
2024/03/13 13:50:15;;;;;;;14.77;2.42;;;;;;;;;;5062775;28;20440;-74
2024/03/13 13:52:46;;;;;;;13.40;2.15;;;;;;;;;;5063032;28;20047;-75
2024/03/13 13:55:15;;;;;;;16.23;3.03;;;;;;;;;;5062789;28;20052;-74
2024/03/13 13:57:47;;;;;;;9.48;1.77;;;;;;;;;;5046405;28;20044;-75
2024/03/13 14:00:19;;;;;;;14.57;2.22;;;;;;;;;;5065420;28;20472;-75
2024/03/13 14:02:47;;;;;;;16.37;2.37;;;;;;;;;;5064212;28;20068;-75
2024/03/13 14:05:16;;;;;;;20.58;3.20;;;;;;;;;;5064654;28;20479;-73
2024/03/13 14:07:44;;;;;;;12.57;2.22;;;;;;;;;;5063916;28;20037;-75
2024/03/13 14:10:11;;;;;;;13.85;2.47;;;;;;;;;;5062754;28;20064;-75
2024/03/13 14:12:47;;;;;;;15.27;2.83;;;;;;;;;;5063064;28;20072;-75
2024/03/13 14:15:17;;;;;;;13.48;1.85;;;;;;;;;;5063225;28;20037;-75
2024/03/13 14:17:45;;;;;;;13.80;2.30;;;;;;;;;;5064010;28;20044;-75
2024/03/13 14:20:13;;;;;;;14.02;2.28;;;;;;;;;;5062342;28;20475;-75
2024/03/13 14:22:40;;;;;;;12.82;2.30;;;;;;;;;;5063054;28;20064;-75
2024/03/13 14:25:08;;;;;;;18.80;2.47;;;;;;;;;;5063660;28;20048;-74
2024/03/13 14:27:41;;;;;;;16.70;2.35;;;;;;;;;;5063432;28;20091;-75
2024/03/13 14:30:08;;;;;;;16.80;2.33;;;;;;;;;;5062976;28;20063;-75
2024/03/13 14:32:34;;;;;;;13.63;2.55;;;;;;;;;;5062783;28;20037;-74
2024/03/13 14:35:01;;;;;;;16.58;2.50;;;;;;;;;;5063387;28;20033;-76
2024/03/13 14:37:34;;;;;;;13.32;2.75;;;;;;;;;;5061865;28;20395;-74
2024/03/13 14:40:05;;;;;;;16.17;2.72;;;;;;;;;;5042329;28;20041;-75
2024/03/13 14:42:32;;;;;;;21.92;2.65;;;;;;;;;;5053862;28;20045;-74
2024/03/13 14:45:02;;;;;;;11.57;2.35;;;;;;;;;;5061600;28;20040;-75
2024/03/13 14:47:29;;;;;;;;;;;;;;;;;;5064190;28;20447;-75
2024/03/13 14:49:56;;;;;;;15.15;2.50;;;;;;;;;;5062671;28;19920;-75
2024/03/13 14:52:23;;;;;;;18.30;3.00;;;;;;;;;;5062814;28;20048;-74
2024/03/13 14:54:51;;;;;;;17.77;2.60;;;;;;;;;;5073789;28;20102;-75
2024/03/13 14:57:19;;;;;;;21.35;3.35;;;;;;;;;;5073188;28;20040;-75
2024/03/13 14:59:48;;;;;;;12.63;2.92;;;;;;;;;;5070132;28;20041;-75
2024/03/13 15:02:15;;;;;;;20.58;3.60;;;;;;;;;;5060511;28;20044;-75
2024/03/13 15:04:44;;;;;;;18.30;2.83;;;;;;;;;;5060884;28;20361;-74